Terminal Aerodrome Forecast
Issued by NWS

Home | Current Version | Previous Version | Text Only | Print | Product List | Glossary On
Versions: 1 2 3 4 5 6 7 8 9 10 11 12 13 14 15 16 17
000
FTUS41 KRNK 261724
TAFBCB
TAF
KBCB 261724Z 2618/2718 00000KT P6SM SKC
     FM270900 VRB03KT 3SM BR SCT002
      TEMPO 2709/2712 1/2SM FG OVC002
     FM271400 18010G18KT P6SM SCT035=

USA.gov is the U.S. government's official web portal to all federal, state and local government web resources and services.